createdAt,value
2022-08-09T00:01:44.006Z,1.50
2022-08-09T00:04:34.120Z,1.77
2022-08-09T00:07:03.292Z,1.80
2022-08-09T00:09:35.615Z,1.60
2022-08-09T00:12:05.541Z,1.63
2022-08-09T00:14:38.079Z,1.70
2022-08-09T00:17:07.742Z,1.23
2022-08-09T00:19:36.146Z,1.40
2022-08-09T00:22:04.313Z,1.50
2022-08-09T00:24:32.499Z,1.70
2022-08-09T00:27:00.241Z,1.90
2022-08-09T00:30:10.091Z,1.50
2022-08-09T00:32:26.680Z,1.40
2022-08-09T00:34:54.994Z,1.30
2022-08-09T00:37:22.700Z,1.50
2022-08-09T00:40:09.638Z,1.60
2022-08-09T00:44:19.800Z,1.70
2022-08-09T00:45:27.897Z,1.42
2022-08-09T00:47:56.948Z,1.70
2022-08-09T00:50:24.901Z,1.60
2022-08-09T00:52:54.958Z,1.58
2022-08-09T00:56:03.342Z,1.60
2022-08-09T00:58:14.715Z,1.50
2022-08-09T01:00:50.457Z,1.30
2022-08-09T01:03:23.447Z,1.40
2022-08-09T01:05:58.410Z,1.40
2022-08-09T01:08:40.500Z,1.60
2022-08-09T01:11:26.617Z,1.75
2022-08-09T01:14:00.245Z,1.40
2022-08-09T01:16:33.200Z,1.30
2022-08-09T01:19:17.173Z,1.50
2022-08-09T01:22:12.287Z,1.63
2022-08-09T01:24:52.175Z,1.70
2022-08-09T01:27:21.383Z,1.60
2022-08-09T01:29:55.148Z,1.70
2022-08-09T01:32:31.908Z,1.50
2022-08-09T01:35:18.303Z,1.67
2022-08-09T01:38:09.630Z,1.60
2022-08-09T01:40:39.913Z,1.60
2022-08-09T01:43:08.954Z,1.60
2022-08-09T01:45:45.962Z,1.55
2022-08-09T01:48:15.889Z,1.38
2022-08-09T01:50:44.066Z,1.65
2022-08-09T01:53:19.267Z,1.40
2022-08-09T01:55:47.687Z,1.58
2022-08-09T01:58:16.908Z,1.35
2022-08-09T02:00:46.247Z,1.48
2022-08-09T02:03:18.103Z,1.65
2022-08-09T02:06:03.861Z,1.42
2022-08-09T02:08:39.346Z,1.63
2022-08-09T02:11:21.272Z,1.80
2022-08-09T02:14:06.586Z,1.30
2022-08-09T02:16:59.792Z,1.70
2022-08-09T02:19:24.592Z,1.92
2022-08-09T02:22:10.241Z,1.60
2022-08-09T02:24:38.246Z,1.40
2022-08-09T02:27:08.501Z,1.70
2022-08-09T02:32:08.876Z,1.60
2022-08-09T02:34:41.696Z,1.48
2022-08-09T02:37:22.494Z,1.65
2022-08-09T02:40:01.745Z,1.48
2022-08-09T02:42:32.821Z,1.77
2022-08-09T02:47:57.624Z,1.55
2022-08-09T02:50:24.369Z,1.73
2022-08-09T02:52:57.868Z,1.55
2022-08-09T02:55:46.619Z,1.67
2022-08-09T02:58:37.008Z,1.50
2022-08-09T03:01:04.499Z,1.60
2022-08-09T03:03:37.180Z,1.38
2022-08-09T03:06:21.707Z,1.60
2022-08-09T03:08:49.533Z,1.50
2022-08-09T03:11:29.953Z,1.80
2022-08-09T03:14:06.528Z,1.70
2022-08-09T03:16:41.426Z,1.50
2022-08-09T03:19:14.559Z,1.75
2022-08-09T03:21:57.792Z,1.50
2022-08-09T03:24:42.754Z,1.48
2022-08-09T03:27:13.288Z,1.70
2022-08-09T03:29:58.065Z,1.70
2022-08-09T03:32:31.029Z,1.67
2022-08-09T03:34:59.071Z,2.03
2022-08-09T03:37:55.472Z,1.67
2022-08-09T03:40:14.541Z,1.42
2022-08-09T03:42:45.715Z,1.83
2022-08-09T03:45:15.532Z,1.70
2022-08-09T03:47:46.347Z,1.70
2022-08-09T03:50:14.666Z,1.77
2022-08-09T03:52:55.897Z,1.70
2022-08-09T03:58:09.704Z,1.58
2022-08-09T04:00:41.989Z,1.50
2022-08-09T04:03:11.734Z,1.52
2022-08-09T04:05:43.386Z,1.70
2022-08-09T04:08:12.775Z,1.70
2022-08-09T04:10:41.004Z,1.80
2022-08-09T04:13:11.490Z,1.60
2022-08-09T04:16:17.493Z,1.63
2022-08-09T04:18:28.862Z,1.60
2022-08-09T04:20:56.595Z,1.60
2022-08-09T04:23:25.764Z,1.45
2022-08-09T04:25:54.055Z,1.60
2022-08-09T04:28:31.870Z,1.52
2022-08-09T04:31:08.270Z,1.50
2022-08-09T04:33:52.591Z,1.52
2022-08-09T04:36:25.844Z,1.67
2022-08-09T04:38:53.781Z,1.50
2022-08-09T04:41:23.706Z,1.70
2022-08-09T04:44:05.031Z,1.77
2022-08-09T04:46:56.935Z,1.75
2022-08-09T04:49:40.460Z,1.67
2022-08-09T04:52:10.708Z,1.60
2022-08-09T04:54:39.085Z,1.73
2022-08-09T04:57:10.093Z,1.83
2022-08-09T04:59:40.191Z,1.65
2022-08-09T05:02:07.918Z,1.58
2022-08-09T05:04:37.376Z,1.60
2022-08-09T05:07:06.174Z,1.70
2022-08-09T05:09:45.252Z,2.00
2022-08-09T05:12:17.656Z,1.80
2022-08-09T05:14:46.261Z,1.90
2022-08-09T05:18:37.416Z,2.00
2022-08-09T05:20:03.019Z,2.00
2022-08-09T05:22:36.044Z,1.98
2022-08-09T05:25:18.500Z,1.77
2022-08-09T05:27:47.855Z,2.08
2022-08-09T05:30:17.762Z,2.20
2022-08-09T05:32:50.776Z,2.10
2022-08-09T05:35:22.123Z,2.40
2022-08-09T05:37:51.041Z,3.17
2022-08-09T05:40:19.774Z,3.50
2022-08-09T05:42:49.672Z,5.60
2022-08-09T05:45:17.456Z,5.63
2022-08-09T05:47:52.377Z,5.88
2022-08-09T05:50:44.139Z,5.90
2022-08-09T05:55:50.725Z,7.38
2022-08-09T05:58:20.888Z,6.32
2022-08-09T06:00:49.416Z,7.80
2022-08-09T06:03:20.158Z,7.07
2022-08-09T06:06:04.301Z,6.65
2022-08-09T06:08:34.264Z,6.82
2022-08-09T06:11:16.384Z,5.80
2022-08-09T06:18:44.107Z,5.72
2022-08-09T06:21:16.199Z,5.50
2022-08-09T06:23:58.483Z,3.15
2022-08-09T06:26:30.369Z,3.38
2022-08-09T06:29:04.740Z,2.90
2022-08-09T06:31:39.842Z,3.33
2022-08-09T06:34:22.848Z,3.55
2022-08-09T06:36:57.462Z,3.42
2022-08-09T06:39:49.134Z,2.95
2022-08-09T06:42:16.567Z,3.28
2022-08-09T06:44:47.640Z,3.03
2022-08-09T06:47:22.208Z,2.78
2022-08-09T06:50:11.364Z,2.70
2022-08-09T06:52:47.003Z,3.15
2022-08-09T06:55:16.645Z,2.92
2022-08-09T06:58:02.993Z,3.30
2022-08-09T07:00:54.991Z,3.00
2022-08-09T07:03:19.680Z,2.92
2022-08-09T07:06:04.643Z,3.08
2022-08-09T07:08:37.206Z,3.40
2022-08-09T07:11:06.573Z,2.90
2022-08-09T07:13:44.899Z,3.00
2022-08-09T07:16:42.522Z,3.40
2022-08-09T07:19:15.603Z,3.33
2022-08-09T07:21:55.194Z,3.13
2022-08-09T07:24:32.624Z,2.90
2022-08-09T07:27:10.812Z,2.75
2022-08-09T07:29:57.014Z,3.00
2022-08-09T07:32:33.158Z,2.92
2022-08-09T07:35:10.346Z,2.40
2022-08-09T07:37:43.223Z,2.60
2022-08-09T07:40:17.499Z,2.92
2022-08-09T07:42:50.634Z,2.92
2022-08-09T07:45:38.285Z,2.78
2022-08-09T07:48:25.604Z,2.72
2022-08-09T07:51:10.308Z,3.33
2022-08-09T07:54:04.388Z,2.70
2022-08-09T07:56:34.175Z,2.53
2022-08-09T07:59:02.104Z,2.67
2022-08-09T08:01:33.035Z,2.67
2022-08-09T08:04:02.159Z,3.05
2022-08-09T08:06:32.223Z,2.88
2022-08-09T08:09:04.863Z,2.67
2022-08-09T08:12:25.062Z,3.20
2022-08-09T08:14:26.032Z,3.13
2022-08-09T08:17:07.466Z,3.22
2022-08-09T08:19:35.712Z,3.22
2022-08-09T08:22:03.469Z,2.65
2022-08-09T08:24:40.244Z,2.90
2022-08-09T08:27:16.667Z,3.35
2022-08-09T08:29:49.813Z,3.08
2022-08-09T08:32:24.206Z,3.10
2022-08-09T08:34:58.587Z,3.13
2022-08-09T08:37:41.262Z,2.65
2022-08-09T08:40:11.160Z,3.10
2022-08-09T08:42:40.195Z,2.87
2022-08-09T08:45:13.876Z,2.92
2022-08-09T08:47:42.861Z,2.55
2022-08-09T08:50:15.453Z,3.10
2022-08-09T08:53:00.554Z,2.90
2022-08-09T08:55:28.803Z,2.83
2022-08-09T08:58:01.350Z,3.00
2022-08-09T09:00:34.659Z,2.90
2022-08-09T09:03:12.166Z,3.17
2022-08-09T09:06:03.044Z,3.42
2022-08-09T09:08:40.750Z,2.78
2022-08-09T09:11:13.595Z,2.72
2022-08-09T09:13:57.165Z,2.80
2022-08-09T09:16:30.787Z,3.00
2022-08-09T09:22:00.717Z,3.45
2022-08-09T09:24:32.567Z,3.70
2022-08-09T09:27:01.060Z,3.22
2022-08-09T09:29:51.570Z,2.97
2022-08-09T09:32:34.461Z,3.42
2022-08-09T09:35:09.116Z,3.60
2022-08-09T09:37:37.793Z,3.10
2022-08-09T09:40:09.876Z,3.40
2022-08-09T09:42:39.378Z,3.22
2022-08-09T09:45:26.527Z,3.53
2022-08-09T09:47:58.713Z,3.60
2022-08-09T09:50:42.168Z,3.22
2022-08-09T09:53:20.314Z,3.53
2022-08-09T09:55:57.718Z,3.17
2022-08-09T09:58:45.321Z,3.00
2022-08-09T10:04:08.872Z,3.30
2022-08-09T10:06:42.725Z,3.30
2022-08-09T10:09:22.682Z,3.35
2022-08-09T10:12:11.404Z,3.30
2022-08-09T10:14:40.350Z,3.33
2022-08-09T10:17:39.854Z,3.47
2022-08-09T10:22:42.828Z,3.60
2022-08-09T10:25:14.339Z,3.20
2022-08-09T10:27:54.516Z,3.10
2022-08-09T10:33:29.886Z,3.38
2022-08-09T10:36:03.077Z,3.08
2022-08-09T10:38:34.062Z,3.30
2022-08-09T10:41:20.719Z,3.20
2022-08-09T10:43:59.843Z,2.90
2022-08-09T10:46:57.550Z,3.65
2022-08-09T10:49:50.034Z,3.20
2022-08-09T10:52:28.679Z,3.28
2022-08-09T10:54:56.456Z,3.00
2022-08-09T10:57:24.258Z,3.85
2022-08-09T10:59:58.142Z,3.30
2022-08-09T11:03:16.563Z,2.63
2022-08-09T11:05:30.107Z,3.05
2022-08-09T11:07:59.501Z,2.78
2022-08-09T11:10:56.347Z,3.03
2022-08-09T11:13:50.220Z,3.22
2022-08-09T11:16:39.251Z,3.30
2022-08-09T11:19:10.704Z,2.88
2022-08-09T11:22:16.689Z,3.63
2022-08-09T11:25:08.456Z,3.45
2022-08-09T11:28:02.580Z,3.15
2022-08-09T11:30:34.581Z,3.20
2022-08-09T11:33:05.684Z,3.00
2022-08-09T11:35:49.649Z,2.90
2022-08-09T11:38:22.377Z,3.00
2022-08-09T11:40:56.204Z,2.97
2022-08-09T11:43:41.043Z,3.10
2022-08-09T11:46:08.838Z,2.75
2022-08-09T11:48:47.791Z,2.88
2022-08-09T11:53:16.695Z,3.10
2022-08-09T11:54:27.990Z,3.30
2022-08-09T11:57:47.025Z,2.90
2022-08-09T12:00:24.285Z,3.40
2022-08-09T12:02:55.626Z,3.17
2022-08-09T12:05:23.639Z,3.20
2022-08-09T12:07:52.761Z,3.03
2022-08-09T12:10:38.402Z,3.03
2022-08-09T12:14:07.918Z,3.20
2022-08-09T12:16:00.450Z,2.80
2022-08-09T12:18:30.989Z,3.13
2022-08-09T12:21:02.848Z,2.88
2022-08-09T12:23:58.039Z,3.05
2022-08-09T12:26:26.377Z,3.08
2022-08-09T12:29:14.069Z,2.90
2022-08-09T12:31:58.634Z,2.95
2022-08-09T12:34:33.898Z,3.13
2022-08-09T12:37:09.775Z,2.92
2022-08-09T12:40:00.927Z,2.90
2022-08-09T12:42:30.745Z,2.90
2022-08-09T12:44:59.327Z,3.08
2022-08-09T12:47:27.765Z,3.10
2022-08-09T12:50:19.806Z,2.95
2022-08-09T12:53:09.130Z,3.00
2022-08-09T12:56:14.283Z,3.13
2022-08-09T12:58:29.313Z,2.97
2022-08-09T13:00:57.748Z,2.93
2022-08-09T13:03:54.116Z,3.00
2022-08-09T13:06:25.895Z,3.13
2022-08-09T13:09:06.257Z,2.72
2022-08-09T13:11:34.898Z,3.28
2022-08-09T13:14:41.855Z,2.90
2022-08-09T13:17:01.954Z,2.95
2022-08-09T13:20:07.557Z,4.57
2022-08-09T13:22:36.906Z,5.78
2022-08-09T13:25:07.832Z,4.65
2022-08-09T13:27:54.514Z,4.38
2022-08-09T13:30:49.388Z,4.13
2022-08-09T13:33:17.237Z,4.40
2022-08-09T13:36:24.806Z,3.65
2022-08-09T13:38:56.595Z,3.92
2022-08-09T13:41:59.441Z,4.38
2022-08-09T13:44:13.467Z,3.60
2022-08-09T13:47:26.650Z,3.80
2022-08-09T13:49:38.123Z,3.88
2022-08-09T13:52:11.393Z,4.22
2022-08-09T13:54:59.420Z,3.92
2022-08-09T13:57:37.096Z,3.80
2022-08-09T14:00:10.611Z,3.43
2022-08-09T14:03:04.082Z,3.33
2022-08-09T14:05:57.049Z,3.33
2022-08-09T14:08:17.901Z,3.35
2022-08-09T14:10:51.853Z,3.40
2022-08-09T14:14:16.060Z,3.75
2022-08-09T14:16:15.113Z,3.40
2022-08-09T14:18:49.345Z,3.42
2022-08-09T14:21:18.828Z,3.40
2022-08-09T14:23:55.302Z,3.28
2022-08-09T14:26:30.436Z,3.10
2022-08-09T14:29:02.186Z,3.35
2022-08-09T14:31:50.260Z,3.35
2022-08-09T14:34:31.537Z,3.30
2022-08-09T14:37:00.804Z,3.30
2022-08-09T14:39:40.068Z,3.17
2022-08-09T14:42:08.538Z,3.20
2022-08-09T14:44:48.659Z,3.05
2022-08-09T14:47:41.214Z,3.03
2022-08-09T14:50:13.015Z,2.80
2022-08-09T14:52:47.779Z,3.13
2022-08-09T14:55:19.947Z,2.72
2022-08-09T14:57:48.992Z,2.83
2022-08-09T15:00:17.077Z,3.22
2022-08-09T15:02:47.119Z,2.92
2022-08-09T15:05:17.122Z,2.97
2022-08-09T15:07:45.332Z,2.58
2022-08-09T15:10:24.869Z,2.55
2022-08-09T15:12:53.098Z,2.55
2022-08-09T15:15:21.187Z,2.65
2022-08-09T15:17:52.377Z,2.80
2022-08-09T15:21:57.533Z,2.45
2022-08-09T15:24:01.493Z,2.90
2022-08-09T15:25:58.699Z,2.80
2022-08-09T15:28:28.295Z,2.60
2022-08-09T15:34:17.463Z,2.67
2022-08-09T15:36:30.005Z,2.60
2022-08-09T15:38:58.714Z,2.85
2022-08-09T15:41:32.140Z,2.80
2022-08-09T15:44:01.951Z,2.70
2022-08-09T15:49:22.014Z,2.53
2022-08-09T15:52:05.258Z,2.40
2022-08-09T15:54:51.440Z,2.55
2022-08-09T15:57:35.371Z,2.30
2022-08-09T16:00:14.305Z,2.25
2022-08-09T16:02:43.259Z,2.70
2022-08-09T16:05:22.040Z,2.63
2022-08-09T16:07:51.347Z,2.60
2022-08-09T16:10:55.489Z,2.30
2022-08-09T16:13:18.459Z,2.30
2022-08-09T16:16:11.130Z,2.38
2022-08-09T16:18:36.670Z,2.47
2022-08-09T16:21:17.224Z,2.30
2022-08-09T16:23:58.442Z,2.50
2022-08-09T16:26:33.918Z,2.40
2022-08-09T16:29:10.812Z,2.35
2022-08-09T16:32:20.234Z,2.53
2022-08-09T16:34:28.744Z,2.40
2022-08-09T16:36:57.046Z,1.92
2022-08-09T16:39:26.510Z,2.20
2022-08-09T16:42:03.072Z,2.38
2022-08-09T16:44:32.707Z,2.00
2022-08-09T16:47:04.178Z,2.10
2022-08-09T16:50:30.012Z,2.10
2022-08-09T16:52:36.221Z,2.28
2022-08-09T16:55:08.100Z,2.45
2022-08-09T16:58:08.842Z,2.38
2022-08-09T17:00:31.265Z,2.08
2022-08-09T17:02:59.124Z,2.20
2022-08-09T17:06:06.531Z,2.30
2022-08-09T17:08:47.089Z,2.03
2022-08-09T17:11:03.729Z,2.22
2022-08-09T17:13:34.359Z,1.85
2022-08-09T17:16:02.668Z,2.10
2022-08-09T17:18:30.546Z,2.20
2022-08-09T17:20:58.648Z,2.10
2022-08-09T17:24:20.196Z,2.40
2022-08-09T17:26:17.682Z,2.28
2022-08-09T17:28:59.954Z,2.17
2022-08-09T17:31:29.801Z,2.30
2022-08-09T17:34:06.445Z,1.98
2022-08-09T17:36:54.153Z,2.10
2022-08-09T17:39:25.154Z,1.92
2022-08-09T17:42:10.950Z,2.08
2022-08-09T17:44:58.675Z,1.70
2022-08-09T17:47:28.941Z,2.20
2022-08-09T17:50:07.428Z,2.00
2022-08-09T17:52:41.944Z,1.95
2022-08-09T17:55:16.840Z,1.92
2022-08-09T17:58:03.466Z,2.22
2022-08-09T18:00:44.185Z,2.15
2022-08-09T18:03:18.007Z,1.83
2022-08-09T18:05:52.936Z,1.95
2022-08-09T18:08:22.303Z,1.98
2022-08-09T18:11:01.764Z,2.03
2022-08-09T18:13:54.436Z,1.98
2022-08-09T18:16:29.320Z,2.15
2022-08-09T18:18:57.513Z,1.90
2022-08-09T18:21:27.416Z,1.92
2022-08-09T18:24:10.067Z,2.05
2022-08-09T18:26:46.412Z,1.85
2022-08-09T18:30:42.195Z,2.00
2022-08-09T18:34:28.918Z,1.85
2022-08-09T18:36:56.653Z,1.95
2022-08-09T18:39:25.677Z,1.95
2022-08-09T18:42:01.070Z,2.08
2022-08-09T18:44:30.267Z,1.90
2022-08-09T18:47:04.824Z,2.17
2022-08-09T18:49:41.414Z,1.95
2022-08-09T18:52:12.084Z,2.10
2022-08-09T18:54:49.722Z,2.05
2022-08-09T18:57:21.929Z,2.03
2022-08-09T18:59:55.618Z,1.83
2022-08-09T19:02:32.285Z,1.77
2022-08-09T19:05:14.872Z,1.80
2022-08-09T19:08:04.052Z,1.80
2022-08-09T19:10:37.004Z,1.85
2022-08-09T19:13:22.503Z,1.80
2022-08-09T19:15:52.871Z,2.10
2022-08-09T19:18:33.755Z,1.98
2022-08-09T19:21:05.223Z,2.10
2022-08-09T19:24:33.049Z,1.88
2022-08-09T19:26:29.158Z,1.90
2022-08-09T19:29:01.942Z,1.80
2022-08-09T19:31:45.274Z,2.00
2022-08-09T19:34:21.387Z,2.00
2022-08-09T19:36:51.572Z,2.00
2022-08-09T19:39:20.745Z,2.05
2022-08-09T19:41:57.191Z,1.80
2022-08-09T19:44:25.492Z,1.77
2022-08-09T19:46:54.546Z,1.98
2022-08-09T19:50:48.986Z,1.80
2022-08-09T19:52:12.205Z,1.73
2022-08-09T19:54:40.591Z,1.80
2022-08-09T19:57:09.301Z,1.80
2022-08-09T19:59:57.701Z,1.73
2022-08-09T20:04:11.168Z,1.70
2022-08-09T20:05:14.838Z,1.47
2022-08-09T20:07:59.136Z,1.70
2022-08-09T20:10:36.327Z,1.70
2022-08-09T20:13:05.355Z,1.70
2022-08-09T20:16:37.975Z,2.00
2022-08-09T20:18:23.151Z,1.60
2022-08-09T20:20:55.953Z,1.70
2022-08-09T20:23:24.369Z,1.50
2022-08-09T20:26:07.226Z,1.83
2022-08-09T20:28:48.191Z,1.70
2022-08-09T20:31:17.658Z,1.50
2022-08-09T20:33:52.372Z,1.73
2022-08-09T20:36:27.317Z,1.60
2022-08-09T20:39:29.213Z,1.67
2022-08-09T20:41:42.971Z,1.75
2022-08-09T20:44:10.809Z,1.50
2022-08-09T20:46:43.147Z,1.63
2022-08-09T20:49:15.771Z,1.70
2022-08-09T20:51:44.085Z,1.90
2022-08-09T20:54:16.844Z,1.70
2022-08-09T20:56:46.655Z,1.63
2022-08-09T20:59:16.858Z,1.58
2022-08-09T21:01:49.872Z,1.40
2022-08-09T21:05:50.729Z,1.50
2022-08-09T21:07:11.770Z,1.60
2022-08-09T21:09:55.607Z,1.30
2022-08-09T21:15:13.886Z,1.70
2022-08-09T21:18:11.207Z,1.60
2022-08-09T21:20:31.120Z,1.40
2022-08-09T21:22:59.315Z,1.60
2022-08-09T21:25:55.744Z,1.58
2022-08-09T21:28:33.827Z,1.40
2022-08-09T21:31:19.356Z,1.60
2022-08-09T21:33:50.568Z,1.50
2022-08-09T21:36:23.598Z,1.40
2022-08-09T21:38:57.943Z,1.40
2022-08-09T21:42:04.265Z,1.52
2022-08-09T21:44:15.481Z,1.50
2022-08-09T21:47:00.815Z,1.50
2022-08-09T21:49:29.509Z,1.47
2022-08-09T21:52:16.743Z,1.55
2022-08-09T21:54:46.258Z,1.65
2022-08-09T21:57:36.800Z,1.40
2022-08-09T22:00:01.917Z,1.50
2022-08-09T22:02:36.858Z,1.33
2022-08-09T22:05:17.087Z,1.45
2022-08-09T22:07:53.391Z,1.52
2022-08-09T22:10:23.170Z,1.50
2022-08-09T22:12:52.087Z,1.63
2022-08-09T22:15:20.634Z,1.60
2022-08-09T22:17:51.224Z,1.38
2022-08-09T22:20:21.798Z,1.60
2022-08-09T22:22:56.672Z,1.40
2022-08-09T22:26:07.646Z,1.30
2022-08-09T22:28:12.467Z,1.40
2022-08-09T22:30:48.517Z,1.40
2022-08-09T22:33:17.419Z,1.42
2022-08-09T22:36:02.365Z,1.38
2022-08-09T22:38:32.695Z,1.60
2022-08-09T22:41:00.910Z,1.50
2022-08-09T22:44:02.797Z,1.50
2022-08-09T22:48:14.133Z,1.80
2022-08-09T22:49:10.075Z,1.40
2022-08-09T22:51:39.401Z,1.40
2022-08-09T22:54:12.627Z,1.50
2022-08-09T22:56:41.745Z,1.40
2022-08-09T22:59:55.978Z,1.65
2022-08-09T23:01:57.253Z,1.48
2022-08-09T23:04:25.500Z,1.50
2022-08-09T23:07:11.361Z,1.50
2022-08-09T23:09:43.065Z,1.40
2022-08-09T23:12:10.788Z,1.40
2022-08-09T23:14:42.498Z,1.40
2022-08-09T23:17:10.529Z,1.30
2022-08-09T23:20:06.811Z,1.30
2022-08-09T23:22:26.080Z,1.40
2022-08-09T23:24:55.138Z,1.60
2022-08-09T23:27:22.846Z,1.20
2022-08-09T23:29:50.562Z,1.35
2022-08-09T23:32:18.276Z,1.33
2022-08-09T23:34:46.156Z,1.50
2022-08-09T23:37:13.887Z,1.40
2022-08-09T23:39:45.461Z,1.38
2022-08-09T23:42:14.545Z,1.20
2022-08-09T23:44:42.253Z,1.40
2022-08-09T23:47:09.976Z,1.20
2022-08-09T23:49:37.669Z,1.40
2022-08-09T23:52:05.763Z,1.60
2022-08-09T23:54:33.469Z,1.10
2022-08-09T23:59:47.398Z,1.30
